Latest Weather Observations for Rhyll

IDV60801

Issued at 10:34 am EST Sunday 23 July 2017 (issued every 30 minutes, with the page automatically refreshed every 10 minutes)

About weather observations | Map of weather stations | Latest weather observations for VIC | Other Formats
Station Details ID: 086373 Name: RHYLL Lat: -38.46 Lon: 145.31 Height: 13.4 m
Data from the previous 72 hours. | See also: Recent months at Rhyll
Date/Time
EST
Temp
°C
App
Temp
°C
Dew
Point
°C
Rel
Hum
%
Delta-T
°C
Wind Press
QNH
hPa
Press
MSL
hPa
Rain since
9am
mm
Dir  Spd
km/h
Gust
km/h
Spd
kts
Gust
kts
23/10:30am 12.0 5.8 6.1 67 2.8 N 28 39 15 21 1011.2 1011.2 0.0
23/10:00am 11.8 6.3 5.7 66 2.8 N 24 39 13 21 1011.1 1011.1 0.0
23/09:30am 11.1 5.5 5.4 68 2.6 N 24 37 13 20 1011.0 1011.0 0.0
23/09:00am 11.0 5.0 5.1 67 2.7 N 26 39 14 21 1010.9 1010.9 0.0
23/08:30am 10.8 4.3 4.5 65 2.8 N 28 41 15 22 1010.6 1010.6 0.0
23/08:00am 10.5 3.6 4.4 66 2.7 N 30 39 16 21 1010.4 1010.4 0.0
23/07:30am 10.8 3.7 3.4 60 3.2 N 30 41 16 22 1010.4 1010.4 0.0
23/07:00am 11.0 3.9 3.5 60 3.3 N 30 43 16 23 1010.1 1010.1 0.0
23/06:30am 11.1 4.4 3.9 61 3.2 N 28 44 15 24 1009.7 1009.7 0.0
23/06:00am 11.1 5.1 3.4 59 3.4 N 24 37 13 20 1009.6 1009.6 0.0
23/05:30am 11.3 4.8 2.9 56 3.7 NNW 26 46 14 25 1009.7 1009.7 0.0
23/05:00am 11.5 6.4 2.8 55 3.8 NNW 19 35 10 19 1009.8 1009.8 0.0
23/04:54am 11.5 3.9 2.8 55 3.8 N 32 50 17 27 1009.6 1009.6 0.0
23/04:30am 11.3 2.6 2.3 54 3.9 NNE 37 52 20 28 1009.3 1009.3 0.0
23/04:00am 10.9 3.1 3.0 58 3.4 NNE 33 41 18 22 1009.7 1009.7 0.0
23/03:30am 11.6 3.6 1.8 51 4.2 N 33 46 18 25 1009.8 1009.8 0.0
23/03:00am 10.4 5.5 2.0 56 3.6 NNE 17 30 9 16 1010.0 1010.0 0.0
23/02:30am 10.8 2.5 1.9 54 3.8 N 35 44 19 24 1010.5 1010.5 0.0
23/02:00am 10.7 0.9 2.5 57 3.5 NNE 43 52 23 28 1010.8 1010.8 0.0
23/01:30am 10.9 0.2 2.5 56 3.6 N 48 59 26 32 1010.7 1010.7 0.0
23/01:00am 11.2 -0.2 2.8 56 3.6 NNE 52 69 28 37 1010.7 1010.7 0.0
23/12:30am 11.3 0.2 2.6 55 3.8 NNE 50 63 27 34 1011.0 1011.0 0.0
23/12:00am 11.2 1.9 3.0 57 3.6 NNE 41 59 22 32 1011.4 1011.4 0.0
 
Date/Time
EST
Temp
°C
App
Temp
°C
Dew
Point
°C
Rel
Hum
%
Delta-T
°C
Wind Press
QNH
hPa
Press
MSL
hPa
Rain since
9am
mm
Dir  Spd
km/h
Gust
km/h
Spd
kts
Gust
kts
22/11:38pm 11.0 3.3 3.3 59 3.4 NNE 33 52 18 28 1012.1 1012.1 0.0
22/11:30pm 11.1 3.4 3.2 58 3.5 NNE 33 43 18 23 1012.2 1012.2 0.0
22/11:00pm 11.1 3.1 3.6 60 3.3 NNE 35 44 19 24 1012.5 1012.5 0.0
22/10:30pm 11.2 3.1 3.5 59 3.4 NNE 35 46 19 25 1012.7 1012.7 0.0
22/10:00pm 11.3 2.9 3.6 59 3.4 NNE 37 48 20 26 1013.1 1013.1 0.0
22/09:30pm 11.3 2.4 3.3 58 3.5 NNE 39 50 21 27 1013.3 1013.3 0.0
22/09:00pm 11.3 3.3 3.8 60 3.3 NNE 35 46 19 25 1013.3 1013.3 0.0
22/08:30pm 11.5 2.4 4.0 60 3.4 N 41 57 22 31 1013.0 1013.0 0.0
22/08:17pm 11.6 3.9 3.4 57 3.6 N 33 52 18 28 1013.2 1013.2 0.0
22/08:00pm 11.4 4.5 4.4 62 3.2 N 30 43 16 23 1013.1 1013.1 0.0
22/07:44pm 11.5 4.1 4.0 60 3.4 N 32 50 17 27 1013.0 1013.0 0.0
22/07:30pm 11.4 4.0 3.9 60 3.3 N 32 44 17 24 1012.9 1012.9 0.0
22/07:00pm 11.0 3.6 4.0 62 3.1 N 32 43 17 23 1013.1 1013.1 0.0
22/06:30pm 11.3 3.9 4.1 61 3.2 NNE 32 37 17 20 1012.9 1012.9 0.0
22/06:00pm 11.2 4.2 4.2 62 3.1 N 30 37 16 20 1013.0 1013.0 0.0
22/05:30pm 11.4 5.5 3.9 60 3.3 NNW 24 37 13 20 1013.5 1013.5 0.0
22/05:00pm 11.3 4.2 3.8 60 3.3 N 30 41 16 22 1013.4 1013.4 0.0
22/04:30pm 11.8 3.7 3.3 56 3.7 NNE 35 44 19 24 1013.3 1013.3 0.0
22/04:00pm 12.0 2.4 3.5 56 3.8 NNE 43 52 23 28 1013.1 1013.1 0.0
22/03:30pm 12.1 3.3 3.6 56 3.8 NNE 39 52 21 28 1013.5 1013.5 0.0
22/03:00pm 12.1 3.8 4.3 59 3.5 NNE 37 48 20 26 1013.7 1013.7 0.0
22/02:30pm 11.8 2.0 3.6 57 3.6 NNE 44 57 24 31 1013.8 1013.8 0.0
22/02:11pm 11.7 2.5 3.7 58 3.6 N 41 61 22 33 1013.9 1013.9 0.0
22/02:00pm 11.7 1.6 3.5 57 3.6 NNE 46 61 25 33 1013.9 1013.9 0.0
22/01:30pm 11.6 0.2 3.1 56 3.7 NNE 52 65 28 35 1014.2 1014.2 0.0
22/01:00pm 11.4 0.8 2.9 56 3.7 NNE 48 65 26 35 1014.8 1014.8 0.0
22/12:30pm 11.2 1.0 3.3 58 3.5 N 46 57 25 31 1015.7 1015.7 0.0
22/12:00pm 11.1 2.3 3.6 60 3.3 N 39 52 21 28 1016.8 1016.8 0.0
22/11:30am 11.1 1.9 3.4 59 3.4 N 41 50 22 27 1017.5 1017.5 0.0
22/11:00am 10.9 0.3 3.2 59 3.4 NNE 48 63 26 34 1017.6 1017.6 0.0
22/10:30am 10.7 1.0 3.0 59 3.3 N 43 56 23 30 1018.3 1018.3 0.0
22/10:00am 10.3 -0.3 3.1 61 3.1 N 48 61 26 33 1018.7 1018.7 0.0
22/09:30am 9.5 -0.1 3.3 65 2.7 N 43 57 23 31 1018.6 1018.6 0.0
22/09:00am 9.3 0.1 3.3 66 2.6 N 41 52 22 28 1018.7 1018.7 0.0
22/08:30am 9.0 0.9 3.2 67 2.5 NNE 35 44 19 24 1019.1 1019.1 0.0
22/08:00am 8.4 2.8 3.3 70 2.2 N 22 33 12 18 1019.4 1019.4 0.0
22/07:30am 7.7 2.1 3.2 73 1.9 N 22 30 12 16 1019.4 1019.4 0.0
22/07:00am 7.5 2.8 3.4 75 1.7 N 17 24 9 13 1019.3 1019.3 0.0
22/06:30am 7.3 3.0 3.5 77 1.6 N 15 22 8 12 1019.2 1019.2 0.0
22/06:00am 7.4 1.1 3.5 76 1.7 N 26 32 14 17 1019.2 1019.2 0.0
22/05:30am 7.2 0.8 3.1 75 1.7 NNE 26 32 14 17 1019.0 1019.0 0.0
22/05:00am 7.4 1.8 3.3 75 1.7 N 22 32 12 17 1018.9 1018.9 0.0
22/04:30am 7.5 2.3 3.4 75 1.7 NNE 20 28 11 15 1018.9 1018.9 0.0
22/04:00am 7.8 1.1 3.7 75 1.8 N 28 39 15 21 1019.0 1019.0 0.0
22/03:30am 7.5 1.6 3.9 78 1.5 NNE 24 33 13 18 1019.2 1019.2 0.0
22/03:00am 7.3 0.6 3.5 77 1.6 NNE 28 33 15 18 1019.5 1019.5 0.0
22/02:30am 7.5 1.2 3.9 78 1.5 N 26 32 14 17 1019.8 1019.8 0.0
22/02:00am 7.4 2.4 3.8 78 1.5 N 19 26 10 14 1020.0 1020.0 0.0
22/01:30am 7.7 2.7 3.7 76 1.7 N 19 24 10 13 1020.6 1020.6 0.0
22/01:00am 8.2 2.4 4.2 76 1.7 N 24 30 13 16 1020.8 1020.8 0.0
22/12:30am 8.8 3.8 4.6 75 1.9 N 20 30 11 16 1021.2 1021.2 0.0
22/12:00am 8.7 3.9 4.9 77 1.7 N 19 28 10 15 1021.8 1021.8 0.0
 
Date/Time
EST
Temp
°C
App
Temp
°C
Dew
Point
°C
Rel
Hum
%
Delta-T
°C
Wind Press
QNH
hPa
Press
MSL
hPa
Rain since
9am
mm
Dir  Spd
km/h
Gust
km/h
Spd
kts
Gust
kts
21/11:30pm 9.1 3.0 4.9 75 1.9 NNE 26 33 14 18 1021.9 1021.9 0.0
21/11:00pm 8.5 4.6 5.3 80 1.4 N 15 20 8 11 1022.3 1022.3 0.0
21/10:30pm 8.5 3.7 4.7 77 1.7 N 19 22 10 12 1022.1 1022.1 0.0
21/10:00pm 9.1 4.8 5.1 76 1.8 N 17 24 9 13 1021.8 1021.8 0.0
21/09:30pm 8.9 5.7 5.3 78 1.6 NNE 11 17 6 9 1021.8 1021.8 0.0
21/09:00pm 8.8 4.7 6.1 83 1.2 NNE 17 20 9 11 1021.9 1021.9 0.0
21/08:30pm 9.1 4.5 6.4 83 1.2 NNE 20 24 11 13 1021.6 1021.6 0.0
21/08:00pm 8.7 4.2 6.3 85 1.1 NE 19 22 10 12 1021.7 1021.7 0.0
21/07:30pm 8.2 5.2 5.8 85 1.1 NE 11 13 6 7 1021.9 1021.9 0.0
21/07:00pm 8.3 5.4 6.3 87 0.9 NE 11 15 6 8 1021.7 1021.7 0.0
21/06:30pm 8.3 4.9 6.1 86 1.0 NE 13 17 7 9 1021.5 1021.5 0.0
21/06:00pm 8.5 5.2 6.3 86 1.0 NE 13 15 7 8 1021.7 1021.7 0.0
21/05:30pm 8.6 5.4 6.7 88 0.9 ENE 13 15 7 8 1021.5 1021.5 0.0
21/05:00pm 9.0 5.7 6.6 85 1.1 ENE 13 15 7 8 1021.6 1021.6 0.0
21/04:30pm 9.6 7.1 6.5 81 1.4 ENE 9 15 5 8 1021.8 1021.8 0.0
21/04:00pm 10.5 9.0 7.0 79 1.7 ENE 4 7 2 4 1022.0 1022.0 0.0
21/03:30pm 11.0 9.3 7.5 79 1.7 ENE 6 13 3 7 1022.1 1022.1 0.0
21/03:00pm 10.6 8.6 7.1 79 1.7 E 7 9 4 5 1022.2 1022.2 0.0
21/02:30pm 10.7 8.3 7.2 79 1.7 ENE 9 13 5 7 1022.3 1022.3 0.0
21/02:00pm 10.9 7.1 7.4 79 1.7 ENE 17 20 9 11 1022.2 1022.2 0.0
21/01:30pm 10.1 6.2 7.0 81 1.5 ENE 17 20 9 11 1022.7 1022.7 0.0
21/01:00pm 10.1 5.8 7.0 81 1.5 ENE 19 20 10 11 1023.0 1023.0 0.0
21/12:30pm 9.4 5.9 7.0 85 1.1 ENE 15 17 8 9 1023.6 1023.6 0.0
21/12:00pm 8.8 5.5 6.6 86 1.0 ENE 13 17 7 9 1024.2 1024.2 0.0
21/11:30am 8.3 5.3 5.9 85 1.1 NE 11 15 6 8 1024.8 1024.8 0.0
21/11:00am 9.1 5.5 6.9 86 1.0 ENE 15 19 8 10 1025.0 1025.0 0.0
21/10:30am 9.3 5.8 7.3 87 0.9 ENE 15 17 8 9 1024.9 1024.9 0.0
21/10:00am 8.2 5.5 7.3 94 0.4 NE 11 13 6 7 1024.9 1024.9 0.0
21/09:30am 7.5 5.4 6.8 95 0.3 NNE 7 13 4 7 1024.8 1024.8 0.0
21/09:00am 6.4 3.3 5.7 95 0.3 N 11 17 6 9 1024.7 1024.7 0.8
21/08:30am 5.6 2.3 4.7 94 0.4 N 11 15 6 8 1024.5 1024.5 0.8
21/08:00am 5.1 2.5 4.2 94 0.4 N 7 9 4 5 1024.1 1024.1 0.8
21/07:30am 5.7 2.4 4.8 94 0.4 NNE 11 15 6 8 1023.7 1023.7 0.8
21/07:00am 6.1 3.7 5.2 94 0.4 ENE 7 11 4 6 1023.3 1023.3 0.8
21/06:30am 6.0 3.7 5.0 93 0.4 ENE 6 9 3 5 1023.0 1023.0 0.8
21/06:00am 6.1 4.2 5.1 93 0.4 ENE 4 7 2 4 1022.8 1022.8 0.8
21/05:30am 6.0 3.7 5.0 93 0.4 NE 6 7 3 4 1022.6 1022.6 0.8
21/05:00am 5.9 4.0 4.9 93 0.4 NE 4 7 2 4 1022.2 1022.2 0.8
21/04:30am 5.8 3.5 4.6 92 0.5 ENE 6 9 3 5 1022.1 1022.1 0.8
21/04:00am 5.8 3.4 4.4 91 0.6 ENE 6 9 3 5 1022.0 1022.0 0.8
21/03:30am 5.9 4.3 4.4 90 0.6 N 2 6 1 3 1022.0 1022.0 0.8
21/03:00am 6.4 4.1 4.6 88 0.8 NNW 6 7 3 4 1022.0 1022.0 0.8
21/02:30am 7.4 5.7 5.9 90 0.7 NNE 4 6 2 3 1021.8 1021.8 0.8
21/02:00am 6.7 4.4 4.9 88 0.8 NE 6 7 3 4 1021.7 1021.7 0.8
21/01:30am 7.5 5.2 5.8 89 0.8 NE 7 9 4 5 1021.9 1021.9 0.8
21/01:00am 7.5 4.8 5.5 87 0.9 ENE 9 13 5 7 1022.1 1022.1 0.8
21/12:30am 8.7 6.6 5.8 82 1.3 ESE 6 9 3 5 1022.1 1022.1 0.8
21/12:00am 9.2 6.2 5.9 80 1.5 SSE 11 15 6 8 1022.1 1022.1 0.8
 
Date/Time
EST
Temp
°C
App
Temp
°C
Dew
Point
°C
Rel
Hum
%
Delta-T
°C
Wind Press
QNH
hPa
Press
MSL
hPa
Rain since
9am
mm
Dir  Spd
km/h
Gust
km/h
Spd
kts
Gust
kts
20/11:30pm 9.6 6.7 6.3 80 1.5 SSE 11 17 6 9 1022.0 1022.0 0.8
20/11:00pm 9.7 6.7 5.9 77 1.7 S 11 15 6 8 1021.9 1021.9 0.8
20/10:30pm 10.2 6.8 5.8 74 2.0 S 13 20 7 11 1021.7 1021.7 0.8
20/10:00pm 10.3 6.8 5.5 72 2.2 S 13 19 7 10 1021.6 1021.6 0.8
20/09:30pm 10.8 7.1 6.2 73 2.1 SSW 15 24 8 13 1021.4 1021.4 0.8
20/09:00pm 11.1 6.8 5.4 68 2.6 SSW 17 32 9 17 1021.1 1021.1 0.8
20/08:30pm 10.8 6.0 4.9 67 2.7 SSW 19 28 10 15 1020.7 1020.7 0.8
20/08:00pm 10.5 6.5 4.9 68 2.5 SSW 15 24 8 13 1020.5 1020.5 0.8
20/07:30pm 10.6 5.8 4.7 67 2.7 SSW 19 28 10 15 1020.4 1020.4 0.8
20/07:00pm 10.5 6.2 5.1 69 2.4 SSW 17 28 9 15 1020.1 1020.1 0.8
20/06:30pm 10.6 5.6 4.7 67 2.7 SSW 20 37 11 20 1019.9 1019.9 0.8
20/06:00pm 10.4 5.5 4.3 66 2.7 SSW 19 33 10 18 1019.6 1019.6 0.8
20/05:30pm 10.2 5.2 4.4 67 2.6 SW 20 32 11 17 1019.4 1019.4 0.8
20/05:00pm 10.2 5.2 4.4 67 2.6 SW 20 33 11 18 1019.1 1019.1 0.8
20/04:30pm 10.4 4.9 3.9 64 2.9 SW 22 32 12 17 1019.0 1019.0 0.8
20/04:00pm 10.6 5.0 3.2 60 3.2 SW 22 35 12 19 1018.6 1018.6 0.8
20/03:30pm 10.4 5.2 3.7 63 2.9 SW 20 32 11 17 1018.4 1018.4 0.8
20/03:00pm 10.4 5.2 3.4 62 3.0 SSW 20 33 11 18 1018.1 1018.1 0.8
20/02:41pm 9.8 3.1 3.5 65 2.7 SSW 28 50 15 27 1018.1 1018.1 0.8
20/02:30pm 11.0 5.3 3.1 58 3.4 SW 22 35 12 19 1017.9 1017.9 0.8
20/02:00pm 10.6 5.6 4.5 66 2.7 SW 20 33 11 18 1017.7 1017.7 0.8
20/01:30pm 9.2 4.4 4.4 72 2.1 SSW 19 30 10 16 1017.5 1017.5 0.8
20/01:00pm 10.1 5.9 5.5 73 2.1 SW 17 37 9 20 1017.4 1017.4 0.4
20/12:30pm 9.7 4.0 4.9 72 2.2 SSW 24 43 13 23 1017.3 1017.3 0.4
20/12:00pm 7.8 0.0 4.9 82 1.3 SSW 35 61 19 33 1017.5 1017.5 0.4
20/11:30am 9.5 2.5 3.9 68 2.5 SSW 30 56 16 30 1017.3 1017.3 0.0
20/11:03am 10.5 3.9 4.0 64 2.9 SSW 28 48 15 26 1017.0 1017.0 0.0
20/11:00am 10.3 4.1 4.5 67 2.6 SSW 26 44 14 24 1017.0 1017.0 0.0
20/10:41am 10.9 4.4 4.6 65 2.8 SSW 28 48 15 26 1016.9 1016.9 0.0

Other Formats:

Comma delimited format used in spreadsheet applications
http://www.bom.gov.au/fwo/IDV60801/IDV60801.94892.axf

JavaScript Object Notation format (JSON) in row-major order
http://www.bom.gov.au/fwo/IDV60801/IDV60801.94892.json